createdAt,value
2023-01-22T00:00:35.329Z,100181.22
2023-01-22T00:03:01.969Z,100188.97
2023-01-22T00:05:28.381Z,100191.59
2023-01-22T00:07:55.508Z,100170.91
2023-01-22T00:10:21.810Z,100175.19
2023-01-22T00:12:48.251Z,100189.78
2023-01-22T00:15:14.801Z,100193.25
2023-01-22T00:17:41.104Z,100188.00
2023-01-22T00:20:08.308Z,100171.59
2023-01-22T00:22:34.683Z,100181.97
2023-01-22T00:25:01.180Z,100187.22
2023-01-22T00:27:27.609Z,100178.66
2023-01-22T00:29:54.301Z,100177.78
2023-01-22T00:32:20.851Z,100176.88
2023-01-22T00:34:47.318Z,100183.75
2023-01-22T00:37:13.715Z,100182.88
2023-01-22T00:39:40.108Z,100191.38
2023-01-22T00:42:06.694Z,100175.09
2023-01-22T00:44:33.243Z,100175.03
2023-01-22T00:46:59.632Z,100179.25
2023-01-22T00:49:26.023Z,100172.47
2023-01-22T00:51:52.745Z,100171.59
2023-01-22T00:54:19.049Z,100155.34
2023-01-22T00:56:45.518Z,100163.06
2023-01-22T00:59:11.818Z,100173.34
2023-01-22T01:01:38.944Z,100165.56
2023-01-22T01:04:05.884Z,100169.94
2023-01-22T01:06:32.559Z,100182.81
2023-01-22T01:08:58.875Z,100171.69
2023-01-22T01:11:25.354Z,100182.00
2023-01-22T01:13:52.468Z,100184.63
2023-01-22T01:16:20.138Z,100189.00
2023-01-22T01:18:47.363Z,100186.25
2023-01-22T01:21:14.571Z,100191.50
2023-01-22T01:23:41.529Z,100189.78
2023-01-22T01:26:10.096Z,100179.44
2023-01-22T01:28:37.091Z,100178.59
2023-01-22T01:31:09.255Z,100182.91
2023-01-22T01:33:35.946Z,100176.84
2023-01-22T01:36:07.469Z,100173.47
2023-01-22T01:38:34.163Z,100176.88
2023-01-22T01:41:00.660Z,100171.75
2023-01-22T01:43:27.449Z,100172.53
2023-01-22T01:45:56.529Z,100173.41
2023-01-22T01:48:37.966Z,100184.44
2023-01-22T01:51:15.667Z,100180.97
2023-01-22T01:53:44.591Z,100179.25
2023-01-22T01:56:14.204Z,100183.66
2023-01-22T01:58:42.770Z,100177.66
2023-01-22T02:01:14.063Z,100155.41
2023-01-22T02:03:41.452Z,100171.66
2023-01-22T02:06:13.312Z,100168.25
2023-01-22T02:08:42.369Z,100181.06
2023-01-22T02:11:10.304Z,100176.84
2023-01-22T02:13:39.676Z,100188.91
2023-01-22T02:16:06.650Z,100182.09
2023-01-22T02:18:33.496Z,100190.69
2023-01-22T02:21:01.087Z,100189.75
2023-01-22T02:23:30.224Z,100188.91
2023-01-22T02:26:00.412Z,100189.75
2023-01-22T02:28:26.800Z,100187.22
2023-01-22T02:30:53.196Z,100185.47
2023-01-22T02:33:19.709Z,100185.44
2023-01-22T02:35:46.115Z,100192.31
2023-01-22T02:38:12.515Z,100183.81
2023-01-22T02:40:39.186Z,100182.94
2023-01-22T02:43:05.614Z,100188.09
2023-01-22T02:45:32.123Z,100185.53
2023-01-22T02:47:58.724Z,100191.53
2023-01-22T02:50:25.018Z,100190.69
2023-01-22T02:52:51.337Z,100193.28
2023-01-22T02:55:17.770Z,100177.75
2023-01-22T02:57:44.342Z,100182.03
2023-01-22T03:00:11.365Z,100175.19
2023-01-22T03:02:37.729Z,100190.69
2023-01-22T03:05:04.445Z,100195.81
2023-01-22T03:07:32.043Z,100188.94
2023-01-22T03:09:58.359Z,100192.41
2023-01-22T03:12:24.768Z,100193.31
2023-01-22T03:14:51.138Z,100189.81
2023-01-22T03:17:17.480Z,100197.47
2023-01-22T03:19:44.648Z,100185.50
2023-01-22T03:22:11.091Z,100180.44
2023-01-22T03:24:37.609Z,100198.44
2023-01-22T03:27:04.583Z,100177.00
2023-01-22T03:29:30.979Z,100189.91
2023-01-22T03:31:57.451Z,100201.09
2023-01-22T03:34:25.895Z,100191.56
2023-01-22T03:36:52.717Z,100189.91
2023-01-22T03:39:19.209Z,100192.44
2023-01-22T03:41:45.612Z,100181.28
2023-01-22T03:44:12.027Z,100196.69
2023-01-22T03:46:39.194Z,100207.84
2023-01-22T03:49:09.318Z,100211.34
2023-01-22T03:51:36.304Z,100211.25
2023-01-22T03:54:02.762Z,100183.81
2023-01-22T03:56:29.614Z,100196.56
2023-01-22T03:58:56.141Z,100202.56
2023-01-22T04:01:25.357Z,100212.09
2023-01-22T04:03:52.621Z,100213.81
2023-01-22T04:06:20.908Z,100210.41
2023-01-22T04:08:50.282Z,100215.56
2023-01-22T04:11:17.160Z,100210.47
2023-01-22T04:13:44.289Z,100203.69
2023-01-22T04:16:11.746Z,100193.38
2023-01-22T04:18:38.360Z,100206.25
2023-01-22T04:21:05.084Z,100213.16
2023-01-22T04:23:31.897Z,100215.78
2023-01-22T04:25:58.237Z,100197.72
2023-01-22T04:28:25.058Z,100206.31
2023-01-22T04:30:53.858Z,100214.09
2023-01-22T04:33:20.311Z,100212.47
2023-01-22T04:35:51.670Z,100208.19
2023-01-22T04:38:18.355Z,100206.47
2023-01-22T04:40:44.804Z,100215.91
2023-01-22T04:43:11.899Z,100227.16
2023-01-22T04:45:38.455Z,100207.38
2023-01-22T04:48:05.389Z,100224.59
2023-01-22T04:50:33.588Z,100223.69
2023-01-22T04:53:00.866Z,100226.28
2023-01-22T04:55:28.237Z,100224.56
2023-01-22T04:57:56.499Z,100232.31
2023-01-22T05:00:24.436Z,100219.44
2023-01-22T05:02:51.107Z,100222.88
2023-01-22T05:05:17.833Z,100231.50
2023-01-22T05:07:44.659Z,100225.47
2023-01-22T05:10:11.227Z,100231.50
2023-01-22T05:12:37.547Z,100234.06
2023-01-22T05:15:15.033Z,100219.50
2023-01-22T05:17:49.144Z,100235.00
2023-01-22T05:20:15.939Z,100236.66
2023-01-22T05:22:42.478Z,100243.63
2023-01-22T05:25:09.034Z,100237.63
2023-01-22T05:27:35.540Z,100245.38
2023-01-22T05:30:02.177Z,100253.16
2023-01-22T05:32:28.526Z,100233.38
2023-01-22T05:34:54.973Z,100238.44
2023-01-22T05:37:21.502Z,100243.59
2023-01-22T05:39:48.082Z,100249.59
2023-01-22T05:42:15.341Z,100243.56
2023-01-22T05:44:42.244Z,100259.13
2023-01-22T05:47:09.913Z,100256.56
2023-01-22T05:49:36.260Z,100258.28
2023-01-22T05:52:02.806Z,100266.94
2023-01-22T05:54:29.148Z,100236.81
2023-01-22T05:56:55.494Z,100267.78
2023-01-22T05:59:21.927Z,100265.25
2023-01-22T06:01:48.305Z,100277.31
2023-01-22T06:04:14.679Z,100261.84
2023-01-22T06:06:41.127Z,100277.38
2023-01-22T06:09:07.627Z,100275.59
2023-01-22T06:11:33.953Z,100279.06
2023-01-22T06:14:00.263Z,100278.19
2023-01-22T06:16:26.726Z,100269.53
2023-01-22T06:18:53.200Z,100285.91
2023-01-22T06:21:19.656Z,100280.72
2023-01-22T06:23:45.979Z,100267.00
2023-01-22T06:26:12.399Z,100275.53
2023-01-22T06:28:38.718Z,100280.69
2023-01-22T06:31:05.563Z,100267.78
2023-01-22T06:33:34.111Z,100275.53
2023-01-22T06:36:01.300Z,100270.38
2023-01-22T06:38:27.694Z,100279.88
2023-01-22T06:40:58.768Z,100290.22
2023-01-22T06:43:27.226Z,100285.06
2023-01-22T06:45:54.564Z,100283.31
2023-01-22T06:48:21.031Z,100287.59
2023-01-22T06:50:47.413Z,100304.00
2023-01-22T06:53:13.968Z,100290.25
2023-01-22T06:55:40.325Z,100291.13
2023-01-22T06:58:07.109Z,100308.38
2023-01-22T07:00:33.574Z,100298.06
2023-01-22T07:02:59.897Z,100306.72
2023-01-22T07:05:26.280Z,100328.25
2023-01-22T07:07:54.125Z,100323.03
2023-01-22T07:10:21.252Z,100327.34
2023-01-22T07:12:49.095Z,100330.84
2023-01-22T07:15:15.541Z,100317.91
2023-01-22T07:17:42.173Z,100332.53
2023-01-22T07:20:09.398Z,100328.31
2023-01-22T07:22:35.757Z,100336.91
2023-01-22T07:25:02.345Z,100339.47
2023-01-22T07:27:28.881Z,100342.91
2023-01-22T07:29:55.494Z,100328.31
2023-01-22T07:32:21.959Z,100345.47
2023-01-22T07:34:48.391Z,100342.88
2023-01-22T07:37:14.707Z,100341.19
2023-01-22T07:39:41.307Z,100339.47
2023-01-22T07:42:07.716Z,100336.09
2023-01-22T07:44:34.116Z,100339.53
2023-01-22T07:47:00.708Z,100331.75
2023-01-22T07:49:27.212Z,100348.94
2023-01-22T07:51:53.526Z,100350.59
2023-01-22T07:54:19.933Z,100358.34
2023-01-22T07:56:46.244Z,100340.28
2023-01-22T07:59:12.567Z,100350.59
2023-01-22T08:01:39.119Z,100349.72
2023-01-22T08:04:06.207Z,100360.91
2023-01-22T08:06:32.911Z,100364.38
2023-01-22T08:08:59.305Z,100357.50
2023-01-22T08:11:26.950Z,100354.06
2023-01-22T08:13:53.333Z,100355.69
2023-01-22T08:16:19.833Z,100372.06
2023-01-22T08:18:46.301Z,100365.13
2023-01-22T08:21:12.659Z,100364.25
2023-01-22T08:23:39.197Z,100374.63
2023-01-22T08:26:05.593Z,100371.16
2023-01-22T08:28:32.257Z,100365.97
2023-01-22T08:30:59.838Z,100378.84
2023-01-22T08:33:27.326Z,100378.78
2023-01-22T08:35:53.651Z,100377.84
2023-01-22T08:38:20.264Z,100386.50
2023-01-22T08:40:53.043Z,100388.19
2023-01-22T08:43:19.445Z,100385.47
2023-01-22T08:45:48.614Z,100382.97
2023-01-22T08:48:15.748Z,100381.28
2023-01-22T08:50:42.264Z,100399.41
2023-01-22T08:53:08.723Z,100389.84
2023-01-22T08:55:35.081Z,100379.56
2023-01-22T08:58:01.541Z,100388.13
2023-01-22T09:00:27.849Z,100397.63
2023-01-22T09:02:58.567Z,100392.41
2023-01-22T09:05:25.553Z,100400.19
2023-01-22T09:07:52.255Z,100395.91
2023-01-22T09:10:21.376Z,100399.34
2023-01-22T09:12:48.141Z,100395.91
2023-01-22T09:15:14.559Z,100407.16
2023-01-22T09:17:41.466Z,100407.94
2023-01-22T09:20:08.448Z,100412.25
2023-01-22T09:22:35.127Z,100414.88
2023-01-22T09:25:01.594Z,100422.63
2023-01-22T09:27:27.900Z,100414.06
2023-01-22T09:29:54.276Z,100419.16
2023-01-22T09:32:20.652Z,100424.38
2023-01-22T09:34:47.056Z,100421.75
2023-01-22T09:37:13.403Z,100424.25
2023-01-22T09:39:39.953Z,100436.19
2023-01-22T09:42:07.445Z,100433.59
2023-01-22T09:44:41.925Z,100421.44
2023-01-22T09:47:14.814Z,100428.41
2023-01-22T09:49:58.426Z,100433.75
2023-01-22T09:52:29.566Z,100444.19
2023-01-22T09:54:56.215Z,100433.81
2023-01-22T09:57:31.340Z,100445.06
2023-01-22T09:59:58.523Z,100439.78
2023-01-22T10:02:36.274Z,100436.41
2023-01-22T10:05:14.522Z,100445.91
2023-01-22T10:07:46.970Z,100453.53
2023-01-22T10:10:23.016Z,100456.22
2023-01-22T10:12:55.679Z,100450.38
2023-01-22T10:15:24.041Z,100452.94
2023-01-22T10:17:52.189Z,100465.84
2023-01-22T10:20:19.040Z,100458.97
2023-01-22T10:22:45.704Z,100462.34
2023-01-22T10:25:14.130Z,100452.88
2023-01-22T10:27:41.081Z,100458.09
2023-01-22T10:30:27.509Z,100455.44
2023-01-22T10:33:06.690Z,100462.31
2023-01-22T10:35:42.937Z,100457.25
2023-01-22T10:38:22.277Z,100467.47
2023-01-22T10:40:54.828Z,100465.84
2023-01-22T10:43:21.356Z,100463.09
2023-01-22T10:45:56.253Z,100469.31
2023-01-22T10:48:23.104Z,100471.81
2023-01-22T10:51:13.200Z,100459.94
2023-01-22T10:53:47.589Z,100455.06
2023-01-22T10:56:26.033Z,100458.56
2023-01-22T10:58:53.059Z,100454.25
2023-01-22T11:01:28.287Z,100463.13
2023-01-22T11:03:54.734Z,100456.84
2023-01-22T11:06:41.626Z,100457.69
2023-01-22T11:09:17.563Z,100452.63
2023-01-22T11:11:50.672Z,100448.97
2023-01-22T11:14:28.895Z,100449.09
2023-01-22T11:17:01.926Z,100449.78
2023-01-22T11:19:39.833Z,100452.47
2023-01-22T11:22:23.631Z,100458.78
2023-01-22T11:24:50.163Z,100458.63
2023-01-22T11:27:25.926Z,100466.50
2023-01-22T11:30:02.686Z,100454.28
2023-01-22T11:33:09.122Z,100447.41
2023-01-22T11:35:46.099Z,100451.59
2023-01-22T11:38:36.272Z,100452.28
2023-01-22T11:41:30.208Z,100451.69
2023-01-22T11:44:36.655Z,100456.22
2023-01-22T11:47:18.109Z,100459.56
2023-01-22T11:50:06.609Z,100452.47
2023-01-22T11:53:05.347Z,100449.03
2023-01-22T11:55:43.999Z,100455.25
2023-01-22T11:58:33.132Z,100450.84
2023-01-22T12:01:24.790Z,100449.22
2023-01-22T12:04:31.759Z,100455.22
2023-01-22T12:07:06.892Z,100456.06
2023-01-22T12:10:00.002Z,100442.84
2023-01-22T12:12:59.168Z,100439.97
2023-01-22T12:15:44.501Z,100445.16
2023-01-22T12:18:39.768Z,100438.28
2023-01-22T12:21:19.019Z,100446.97
2023-01-22T12:24:08.904Z,100447.09
2023-01-22T12:26:42.292Z,100453.16
2023-01-22T12:29:27.370Z,100450.91
2023-01-22T12:32:04.739Z,100451.75
2023-01-22T12:34:38.630Z,100456.88
2023-01-22T12:37:07.771Z,100441.22
2023-01-22T12:39:38.836Z,100458.47
2023-01-22T12:42:41.584Z,100455.53
2023-01-22T12:45:27.861Z,100454.38
2023-01-22T12:48:10.761Z,100448.09
2023-01-22T12:50:52.310Z,100458.44
2023-01-22T12:53:33.757Z,100452.47
2023-01-22T12:56:10.460Z,100462.91
2023-01-22T12:58:39.812Z,100464.69
2023-01-22T13:01:22.461Z,100461.13
2023-01-22T13:04:04.343Z,100464.00
2023-01-22T13:06:38.013Z,100470.69
2023-01-22T13:09:06.950Z,100466.34
2023-01-22T13:11:39.105Z,100468.00
2023-01-22T13:14:25.434Z,100471.75
2023-01-22T13:16:57.084Z,100482.25
2023-01-22T13:19:26.274Z,100477.03
2023-01-22T13:21:53.266Z,100461.66
2023-01-22T13:24:21.596Z,100474.69
2023-01-22T13:27:00.079Z,100474.41
2023-01-22T13:29:28.130Z,100481.16
2023-01-22T13:32:01.940Z,100482.19
2023-01-22T13:34:29.303Z,100472.84
2023-01-22T13:36:56.563Z,100470.31
2023-01-22T13:39:27.663Z,100475.44
2023-01-22T13:41:56.718Z,100480.66
2023-01-22T13:44:33.045Z,100460.75
2023-01-22T13:47:00.052Z,100473.78
2023-01-22T13:49:31.933Z,100483.38
2023-01-22T13:52:04.275Z,100480.75
2023-01-22T13:54:40.347Z,100473.69
2023-01-22T13:57:06.714Z,100476.22
2023-01-22T13:59:33.143Z,100478.78
2023-01-22T14:01:59.542Z,100471.94
2023-01-22T14:04:33.377Z,100489.56
2023-01-22T14:07:00.296Z,100482.56
2023-01-22T14:09:32.527Z,100488.84
2023-01-22T14:12:00.344Z,100490.84
2023-01-22T14:14:26.977Z,100490.78
2023-01-22T14:16:53.537Z,100488.44
2023-01-22T14:19:19.832Z,100483.97
2023-01-22T14:21:46.386Z,100471.06
2023-01-22T14:24:12.714Z,100478.03
2023-01-22T14:26:39.099Z,100473.59
2023-01-22T14:29:05.708Z,100477.22
2023-01-22T14:31:32.096Z,100485.38
2023-01-22T14:33:58.474Z,100486.38
2023-01-22T14:36:25.006Z,100488.06
2023-01-22T14:38:51.437Z,100481.88
2023-01-22T14:41:17.760Z,100489.06
2023-01-22T14:43:44.178Z,100498.59
2023-01-22T14:46:10.660Z,100495.66
2023-01-22T14:48:38.624Z,100509.75
2023-01-22T14:51:10.159Z,100502.78
2023-01-22T14:53:36.777Z,100502.09
2023-01-22T14:56:03.297Z,100505.63
2023-01-22T14:58:29.693Z,100503.94
2023-01-22T15:00:56.018Z,100512.59
2023-01-22T15:03:22.591Z,100509.28
2023-01-22T15:05:52.437Z,100516.13
2023-01-22T15:08:18.983Z,100517.97
2023-01-22T15:10:45.541Z,100519.56
2023-01-22T15:13:11.871Z,100528.16
2023-01-22T15:15:38.435Z,100521.22
2023-01-22T15:18:04.766Z,100527.38
2023-01-22T15:20:31.145Z,100522.16
2023-01-22T15:22:57.635Z,100513.59
2023-01-22T15:25:24.068Z,100519.63
2023-01-22T15:27:50.393Z,100528.22
2023-01-22T15:30:17.023Z,100527.44
2023-01-22T15:32:43.714Z,100541.34
2023-01-22T15:35:10.398Z,100558.56
2023-01-22T15:37:36.824Z,100550.75
2023-01-22T15:40:03.739Z,100555.09
2023-01-22T15:42:30.065Z,100545.66
2023-01-22T15:44:56.507Z,100549.00
2023-01-22T15:47:23.183Z,100563.66
2023-01-22T15:49:49.673Z,100560.13
2023-01-22T15:52:16.006Z,100555.16
2023-01-22T15:54:42.696Z,100573.09
2023-01-22T15:57:09.078Z,100555.94
2023-01-22T15:59:35.449Z,100544.88
2023-01-22T16:02:01.797Z,100559.53
2023-01-22T16:04:28.206Z,100542.19
2023-01-22T16:06:54.568Z,100548.19
2023-01-22T16:09:20.945Z,100548.34
2023-01-22T16:11:47.743Z,100562.97
2023-01-22T16:14:14.436Z,100555.13
2023-01-22T16:16:41.028Z,100558.22
2023-01-22T16:19:09.743Z,100563.41
2023-01-22T16:21:36.529Z,100559.28
2023-01-22T16:24:03.169Z,100548.03
2023-01-22T16:26:32.380Z,100559.28
2023-01-22T16:29:00.606Z,100567.00
2023-01-22T16:31:29.303Z,100575.59
2023-01-22T16:33:59.039Z,100571.50
2023-01-22T16:36:27.935Z,100586.16
2023-01-22T16:38:54.421Z,100581.81
2023-01-22T16:41:26.845Z,100569.78
2023-01-22T16:44:11.139Z,100580.03
2023-01-22T16:46:41.703Z,100581.84
2023-01-22T16:49:13.352Z,100572.09
2023-01-22T16:51:42.825Z,100565.44
2023-01-22T16:54:32.438Z,100591.16
2023-01-22T16:57:01.136Z,100588.47
2023-01-22T16:59:27.545Z,100582.75
2023-01-22T17:01:54.802Z,100583.47
2023-01-22T17:04:21.251Z,100583.66
2023-01-22T17:06:51.311Z,100593.16
2023-01-22T17:09:23.955Z,100582.00
2023-01-22T17:11:58.620Z,100590.56
2023-01-22T17:14:27.496Z,100587.94
2023-01-22T17:16:54.093Z,100572.47
2023-01-22T17:19:20.893Z,100599.22
2023-01-22T17:21:50.151Z,100604.38
2023-01-22T17:24:16.453Z,100587.94
2023-01-22T17:26:42.806Z,100600.09
2023-01-22T17:29:10.262Z,100604.47
2023-01-22T17:31:37.579Z,100585.63
2023-01-22T17:34:04.451Z,100614.56
2023-01-22T17:36:31.734Z,100615.97
2023-01-22T17:38:58.125Z,100616.34
2023-01-22T17:41:25.685Z,100621.63
2023-01-22T17:43:53.116Z,100624.25
2023-01-22T17:46:22.691Z,100622.59
2023-01-22T17:48:50.997Z,100611.97
2023-01-22T17:51:20.138Z,100618.06
2023-01-22T17:53:48.745Z,100626.81
2023-01-22T17:56:18.040Z,100613.91
2023-01-22T17:58:47.416Z,100626.97
2023-01-22T18:01:15.119Z,100619.13
2023-01-22T18:03:41.883Z,100625.25
2023-01-22T18:06:08.731Z,100637.38
2023-01-22T18:08:36.461Z,100641.69
2023-01-22T18:11:08.439Z,100639.97
2023-01-22T18:13:36.150Z,100649.56
2023-01-22T18:16:02.741Z,100637.38
2023-01-22T18:18:29.512Z,100646.00
2023-01-22T18:20:56.078Z,100648.75
2023-01-22T18:23:22.686Z,100654.84
2023-01-22T18:25:50.193Z,100661.50
2023-01-22T18:28:18.380Z,100664.19
2023-01-22T18:30:46.576Z,100668.50
2023-01-22T18:33:14.261Z,100661.72
2023-01-22T18:35:50.550Z,100659.13
2023-01-22T18:38:18.214Z,100660.59
2023-01-22T18:40:44.533Z,100656.25
2023-01-22T18:43:10.922Z,100633.13
2023-01-22T18:45:39.532Z,100676.28
2023-01-22T18:48:07.034Z,100673.56
2023-01-22T18:50:33.526Z,100683.13
2023-01-22T18:52:59.975Z,100668.53
2023-01-22T18:55:26.529Z,100671.19
2023-01-22T18:57:53.013Z,100688.31
2023-01-22T19:00:20.203Z,100682.34
2023-01-22T19:02:56.688Z,100678.00
2023-01-22T19:05:24.587Z,100697.13
2023-01-22T19:07:51.099Z,100696.13
2023-01-22T19:10:17.905Z,100689.28
2023-01-22T19:12:44.897Z,100700.59
2023-01-22T19:15:12.156Z,100692.91
2023-01-22T19:17:38.964Z,100700.69
2023-01-22T19:20:06.086Z,100698.97
2023-01-22T19:22:32.443Z,100700.69
2023-01-22T19:24:58.907Z,100707.56
2023-01-22T19:27:25.395Z,100692.03
2023-01-22T19:29:52.125Z,100698.97
2023-01-22T19:32:18.508Z,100691.22
2023-01-22T19:34:44.794Z,100703.28
2023-01-22T19:37:11.111Z,100686.00
2023-01-22T19:39:38.585Z,100687.72
2023-01-22T19:42:06.375Z,100699.84
2023-01-22T19:44:34.359Z,100705.03
2023-01-22T19:47:00.965Z,100706.72
2023-01-22T19:49:28.031Z,100713.63
2023-01-22T19:51:54.368Z,100712.72
2023-01-22T19:54:20.749Z,100716.22
2023-01-22T19:56:47.121Z,100703.28
2023-01-22T19:59:19.167Z,100717.03
2023-01-22T20:01:46.956Z,100729.13
2023-01-22T20:04:26.404Z,100723.97
2023-01-22T20:06:58.384Z,100730.88
2023-01-22T20:09:25.165Z,100728.25
2023-01-22T20:11:53.521Z,100729.09
2023-01-22T20:14:26.031Z,100739.47
2023-01-22T20:16:52.354Z,100736.03
2023-01-22T20:19:18.752Z,100731.75
2023-01-22T20:21:45.047Z,100736.94
2023-01-22T20:24:11.378Z,100743.03
2023-01-22T20:26:37.832Z,100749.06
2023-01-22T20:29:04.975Z,100745.59
2023-01-22T20:31:31.446Z,100753.41
2023-01-22T20:33:58.157Z,100752.53
2023-01-22T20:36:26.308Z,100756.78
2023-01-22T20:38:53.469Z,100753.38
2023-01-22T20:41:21.681Z,100751.69
2023-01-22T20:43:48.867Z,100761.19
2023-01-22T20:46:18.755Z,100759.44
2023-01-22T20:48:45.418Z,100762.91
2023-01-22T20:51:15.439Z,100766.38
2023-01-22T20:53:42.795Z,100762.03
2023-01-22T20:56:13.500Z,100743.06
2023-01-22T20:58:40.152Z,100761.19
2023-01-22T21:01:12.307Z,100774.97
2023-01-22T21:03:38.645Z,100773.28
2023-01-22T21:06:07.778Z,100774.16
2023-01-22T21:08:35.190Z,100775.91
2023-01-22T21:11:04.180Z,100775.06
2023-01-22T21:13:30.843Z,100784.56
2023-01-22T21:15:57.484Z,100788.91
2023-01-22T21:18:24.154Z,100778.56
2023-01-22T21:20:50.800Z,100780.25
2023-01-22T21:23:17.654Z,100782.81
2023-01-22T21:25:44.073Z,100784.56
2023-01-22T21:28:10.446Z,100782.84
2023-01-22T21:30:36.981Z,100769.06
2023-01-22T21:33:07.455Z,100773.38
2023-01-22T21:35:34.008Z,100765.59
2023-01-22T21:38:00.496Z,100760.41
2023-01-22T21:40:27.019Z,100770.78
2023-01-22T21:42:53.385Z,100777.69
2023-01-22T21:45:20.038Z,100777.69
2023-01-22T21:47:46.470Z,100776.84
2023-01-22T21:50:12.883Z,100780.28
2023-01-22T21:52:39.180Z,100765.59
2023-01-22T21:55:07.782Z,100765.56
2023-01-22T21:57:34.087Z,100772.50
2023-01-22T22:00:00.459Z,100770.75
2023-01-22T22:02:26.903Z,100762.13
2023-01-22T22:04:53.257Z,100781.13
2023-01-22T22:07:19.748Z,100773.38
2023-01-22T22:09:46.095Z,100769.94
2023-01-22T22:12:12.464Z,100785.47
2023-01-22T22:14:38.952Z,100762.19
2023-01-22T22:17:05.311Z,100781.16
2023-01-22T22:19:31.851Z,100782.88
2023-01-22T22:21:58.191Z,100792.38
2023-01-22T22:24:24.576Z,100800.16
2023-01-22T22:26:51.137Z,100798.41
2023-01-22T22:29:17.592Z,100804.47
2023-01-22T22:31:44.081Z,100800.97
2023-01-22T22:34:10.932Z,100801.88
2023-01-22T22:36:37.244Z,100797.53
2023-01-22T22:39:04.350Z,100799.25
2023-01-22T22:41:33.279Z,100798.38
2023-01-22T22:44:00.136Z,100791.47
2023-01-22T22:46:31.906Z,100798.34
2023-01-22T22:49:00.175Z,100798.34
2023-01-22T22:51:31.265Z,100807.00
2023-01-22T22:54:00.430Z,100800.91
2023-01-22T22:56:28.175Z,100797.50
2023-01-22T22:58:55.855Z,100805.25
2023-01-22T23:01:24.580Z,100803.53
2023-01-22T23:03:51.477Z,100798.38
2023-01-22T23:06:21.329Z,100817.41
2023-01-22T23:08:50.066Z,100809.59
2023-01-22T23:11:18.159Z,100797.53
2023-01-22T23:13:46.397Z,100802.63
2023-01-22T23:16:14.879Z,100818.22
2023-01-22T23:18:41.362Z,100800.13
2023-01-22T23:21:10.110Z,100814.81
2023-01-22T23:23:36.871Z,100813.97
2023-01-22T23:26:08.018Z,100804.50
2023-01-22T23:28:34.511Z,100799.28
2023-01-22T23:31:06.624Z,100826.03
2023-01-22T23:33:33.264Z,100810.41
2023-01-22T23:36:11.846Z,100822.53
2023-01-22T23:38:39.352Z,100823.38
2023-01-22T23:41:07.925Z,100819.06
2023-01-22T23:43:34.896Z,100822.53
2023-01-22T23:46:02.021Z,100830.38
2023-01-22T23:48:28.411Z,100816.50
2023-01-22T23:50:54.774Z,100823.47
2023-01-22T23:53:22.234Z,100820.03
2023-01-22T23:55:49.028Z,100828.69
2023-01-22T23:58:15.822Z,100835.63
